DAL1011 EDDF-OMDB
Flight info
| Callsign | DAL1011 |
|---|---|
| Flight time | N/A |
| Altitude | 35000 |
| Route | TOBAK8M/25C TOBAK N858 SWALM T201 TAMEB DCT NEVKO DCT OMELO DCT VOZ DCT PISAM DCT TEKNO DCT KEROP DCT NISVA DCT VANET DCT NIKTI DCT LMO DCT RIKSO DCT YOYYO UG80 BANRO DCT VANZA/N0479F370 DCT LAKTO L560 SILKA M872 BDB Y214 NAGUB/N0480F390 Y214 RAPMA DCT KUVSO DCT KATIT DCT PEKEM M628 RIGIL G783 ELUDA/N0491F350 G783 ASPED Q308 KIPOK/N0493F340 Q568 IMPED IMPED3C |
| Aircraft | L101/H-SDFGHIRWXY/S |
Departure
| Time | 2026-05-05 18:06 |
|---|---|
| Airport | Frankfurt Main Airport (EDDF) |
Arrival
| Time | N/A |
|---|---|
| Airport | Dubai International Airport (OMDB) |
| Time | Latitude | Longitude | Altitude | Speed | Heading |
|---|---|---|---|---|---|
| 2026-05-05 17:57 | 50.04659 | 8.57511 | 353 ft | 0 kts | 121° |
| 2026-05-05 17:58 | 50.04658 | 8.57515 | 370 ft | 1 kts | 116° |
| 2026-05-05 17:58 | 50.04659 | 8.57525 | 373 ft | 4 kts | 83° |
| 2026-05-05 17:58 | 50.04659 | 8.57597 | 359 ft | 11 kts | 91° |
| 2026-05-05 17:58 | 50.04666 | 8.57725 | 356 ft | 12 kts | 78° |
| 2026-05-05 17:59 | 50.04680 | 8.57793 | 361 ft | 0 kts | 68° |
| 2026-05-05 18:01 | 50.04682 | 8.57800 | 353 ft | 0 kts | 68° |
| 2026-05-05 18:01 | 50.04685 | 8.57811 | 353 ft | 2 kts | 68° |
| 2026-05-05 18:01 | 50.04694 | 8.57845 | 361 ft | 5 kts | 68° |
| 2026-05-05 18:01 | 50.04701 | 8.57906 | 355 ft | 7 kts | 90° |
| 2026-05-05 18:02 | 50.04675 | 8.57971 | 362 ft | 8 kts | 146° |
| 2026-05-05 18:02 | 50.04614 | 8.58015 | 357 ft | 13 kts | 155° |
| 2026-05-05 18:02 | 50.04579 | 8.58062 | 354 ft | 3 kts | 117° |
| 2026-05-05 18:02 | 50.04572 | 8.58119 | 352 ft | 7 kts | 90° |
| 2026-05-05 18:03 | 50.04585 | 8.58191 | 348 ft | 8 kts | 70° |
| 2026-05-05 18:03 | 50.04607 | 8.58289 | 349 ft | 10 kts | 70° |
| 2026-05-05 18:03 | 50.04635 | 8.58409 | 339 ft | 14 kts | 70° |
| 2026-05-05 18:03 | 50.04633 | 8.58558 | 329 ft | 11 kts | 127° |
| 2026-05-05 18:04 | 50.04577 | 8.58600 | 327 ft | 10 kts | 160° |
| 2026-05-05 18:04 | 50.04518 | 8.58605 | 331 ft | 6 kts | 198° |
| 2026-05-05 18:04 | 50.04495 | 8.58578 | 332 ft | 3 kts | 226° |
| 2026-05-05 18:04 | 50.04480 | 8.58545 | 332 ft | 6 kts | 245° |
| 2026-05-05 18:05 | 50.04468 | 8.58500 | 330 ft | 25 kts | 249° |
| 2026-05-05 18:05 | 50.04297 | 8.57795 | 334 ft | 110 kts | 249° |
| 2026-05-05 18:05 | 50.03935 | 8.56354 | 363 ft | 176 kts | 250° |
| 2026-05-05 18:05 | 50.03464 | 8.54345 | 803 ft | 207 kts | 251° |
| 2026-05-05 18:06 | 50.03032 | 8.52041 | 1495 ft | 244 kts | 260° |
| 2026-05-05 18:06 | 50.02924 | 8.50165 | 2035 ft | 268 kts | 269° |
| 2026-05-05 18:06 | 50.03280 | 8.46078 | 3304 ft | 306 kts | 289° |
| 2026-05-05 18:06 | 50.04428 | 8.43156 | 4437 ft | 329 kts | 310° |
| 2026-05-05 18:07 | 50.06141 | 8.40686 | 5712 ft | 343 kts | 318° |
| 2026-05-05 18:07 | 50.07980 | 8.38241 | 6958 ft | 355 kts | 318° |
| 2026-05-05 18:07 | 50.10045 | 8.35914 | 7695 ft | 385 kts | 329° |
| 2026-05-05 18:07 | 50.12688 | 8.34381 | 7648 ft | 424 kts | 347° |
| 2026-05-05 18:08 | 50.15552 | 8.34157 | 7061 ft | 403 kts | 7° |
| 2026-05-05 18:08 | 50.18166 | 8.35281 | 6713 ft | 377 kts | 22° |
| 2026-05-05 18:08 | 50.20407 | 8.36803 | 6978 ft | 335 kts | 22° |
| 2026-05-05 18:08 | 50.22465 | 8.37940 | 7752 ft | 280 kts | 15° |
| 2026-05-05 18:09 | 50.24233 | 8.38598 | 8788 ft | 255 kts | 11° |
| 2026-05-05 18:09 | 50.25963 | 8.39194 | 10003 ft | 255 kts | 14° |
| 2026-05-05 18:09 | 50.27620 | 8.40186 | 11115 ft | 258 kts | 32° |
| 2026-05-05 18:09 | 50.28593 | 8.41241 | 11816 ft | 258 kts | 40° |
| 2026-05-05 18:10 | 50.30409 | 8.43702 | 13313 ft | 260 kts | 40° |
| 2026-05-05 18:10 | 50.31877 | 8.45469 | 14046 ft | 276 kts | 37° |
| 2026-05-05 18:10 | 50.33567 | 8.47049 | 14586 ft | 281 kts | 22° |
| 2026-05-05 18:10 | 50.35401 | 8.47958 | 15570 ft | 273 kts | 24° |
| 2026-05-05 18:11 | 50.37059 | 8.49410 | 16388 ft | 280 kts | 40° |
| 2026-05-05 18:11 | 50.38536 | 8.51445 | 17062 ft | 281 kts | 49° |
| 2026-05-05 18:11 | 50.39413 | 8.52968 | 17824 ft | 275 kts | 54° |
| 2026-05-05 18:11 | 50.40914 | 8.56134 | 19148 ft | 269 kts | 59° |
| 2026-05-05 18:12 | 50.41609 | 8.57745 | 19721 ft | 269 kts | 60° |